Time;durP1;ratioP1;P1;durP2;ratioP2;P2;SDS_P1;SDS_P2;PMS_P1;PMS_P2;Temp;Humidity;BMP_temperature;BMP_pressure;BME280_temperature;BME280_humidity;BME280_pressure;Samples;Min_cycle;Max_cycle;Signal;HPM_P1;HPM_P2
2021/10/05 00:02:24;;;;;;;;;47.00;40.75;;;;;11.90;58.25;102559.38;6285822;22;11563;-71
2021/10/05 00:05:20;;;;;;;;;33.50;32.75;;;;;11.86;58.56;102561.09;6276447;22;11555;-71
2021/10/05 00:08:15;;;;;;;;;30.25;28.25;;;;;11.81;58.66;102566.69;6293656;22;11461;-71
2021/10/05 00:11:12;;;;;;;;;42.50;38.00;;;;;11.74;59.25;102562.59;6276512;22;11490;-71
2021/10/05 00:14:07;;;;;;;;;36.75;35.75;;;;;11.81;58.76;102569.47;6274125;22;11471;-72
2021/10/05 00:17:04;;;;;;;;;50.75;43.00;;;;;11.79;59.19;102563.34;6276297;22;11464;-71
2021/10/05 00:20:00;;;;;;;;;51.00;43.25;;;;;11.70;59.37;102556.78;6293557;22;11509;-71
2021/10/05 00:22:57;;;;;;;;;59.00;48.50;;;;;11.59;59.75;102560.81;6276207;22;11525;-71
2021/10/05 00:25:52;;;;;;;;;46.25;39.75;;;;;11.66;59.42;102553.78;6276074;22;11561;-71
2021/10/05 00:28:48;;;;;;;;;58.75;48.50;;;;;11.58;59.77;102556.38;6276242;22;11613;-71
2021/10/05 00:31:43;;;;;;;;;46.50;40.75;;;;;11.63;59.57;102553.53;6276186;22;11534;-71
2021/10/05 00:34:11;;;;;;;;;40.25;38.00;;;;;11.58;59.76;102551.66;6285414;22;12277;-71
2021/10/05 00:37:07;;;;;;;;;46.00;40.75;;;;;11.60;59.77;102559.69;6276079;22;11544;-71
2021/10/05 00:40:04;;;;;;;;;41.00;38.00;;;;;11.55;59.98;102562.50;6275985;22;11590;-71
2021/10/05 00:43:00;;;;;;;;;47.00;41.00;;;;;11.56;59.89;102564.97;6276053;22;11534;-71
2021/10/05 00:45:27;;;;;;;;;44.50;39.00;;;;;11.58;60.11;102565.53;6274963;22;12215;-71
2021/10/05 00:48:23;;;;;;;;;40.50;36.00;;;;;11.57;60.15;102560.25;6275948;22;11528;-71
2021/10/05 00:51:19;;;;;;;;;43.75;38.75;;;;;11.50;60.21;102565.28;6276032;22;11574;-71
2021/10/05 00:54:14;;;;;;;;;36.00;35.00;;;;;11.51;60.40;102578.06;6277094;22;11529;-71
2021/10/05 00:57:12;;;;;;;;;29.00;28.00;;;;;11.46;60.57;102572.56;6273794;22;11479;-71
2021/10/05 01:00:09;;;;;;;;;29.25;28.25;;;;;11.48;60.77;102573.91;6276563;22;11449;-71
2021/10/05 01:03:05;;;;;;;;;22.25;22.25;;;;;11.46;61.02;102580.88;6275517;22;11435;-71
2021/10/05 01:06:01;;;;;;;;;28.75;25.00;;;;;11.45;61.03;102570.91;6275973;22;11497;-71
2021/10/05 01:08:56;;;;;;;;;21.25;21.25;;;;;11.50;60.89;102573.59;6275434;22;11473;-71
2021/10/05 01:11:53;;;;;;;;;22.00;21.25;;;;;11.46;61.11;102578.09;6275746;22;12262;-71
2021/10/05 01:14:49;;;;;;;;;22.50;22.00;;;;;11.60;60.75;102581.84;6275868;22;11535;-71
2021/10/05 01:17:44;;;;;;;;;28.00;26.25;;;;;11.50;61.29;102582.78;6275718;22;12210;-71
2021/10/05 01:21:01;;;;;;;;;25.25;24.25;;;;;11.50;61.28;102581.91;6275552;22;11472;-71
2021/10/05 01:24:24;;;;;;;;;24.25;23.25;;;;;11.35;61.87;102580.97;6275725;22;11452;-72
2021/10/05 01:27:20;;;;;;;;;25.75;25.00;;;;;11.42;61.94;102580.59;6275590;22;11471;-71
2021/10/05 01:30:18;;;;;;;;;37.00;35.50;;;;;11.31;62.34;102582.66;6275826;22;11575;-71
2021/10/05 01:33:14;;;;;;;;;28.25;23.75;;;;;11.32;62.59;102600.09;6275450;22;11463;-71
2021/10/05 01:36:10;;;;;;;;;31.75;31.00;;;;;11.34;62.81;102592.31;6275781;22;11455;-71
2021/10/05 01:39:19;;;;;;;;;32.75;29.75;;;;;11.24;63.11;102596.00;6293836;22;11463;-71
2021/10/05 01:42:15;;;;;;;;;27.25;27.25;;;;;11.26;63.20;102590.16;6275494;22;11470;-71
2021/10/05 01:45:11;;;;;;;;;30.00;28.50;;;;;11.24;63.49;102598.78;6275599;22;12159;-71
2021/10/05 01:48:08;;;;;;;;;27.50;27.50;;;;;11.17;63.91;102595.50;6273444;22;11459;-71
2021/10/05 01:51:04;;;;;;;;;29.50;29.50;;;;;11.13;64.08;102603.56;6275608;22;11443;-71
2021/10/05 01:54:00;;;;;;;;;25.50;24.75;;;;;11.11;64.30;102604.97;6275918;22;11463;-71
2021/10/05 01:56:28;;;;;;;;;29.25;27.00;;;;;11.08;64.83;102603.59;6285119;22;11468;-71
2021/10/05 01:59:23;;;;;;;;;24.50;24.50;;;;;11.25;64.23;102605.13;6273350;22;11540;-71
2021/10/05 02:02:19;;;;;;;;;30.00;30.00;;;;;11.15;64.85;102603.28;6275409;22;11509;-71
2021/10/05 02:05:15;;;;;;;;;23.00;22.50;;;;;11.24;64.44;102597.94;6275464;22;11433;-71
2021/10/05 02:08:11;;;;;;;;;30.75;30.75;;;;;11.26;64.69;102607.63;6275494;22;11474;-71
2021/10/05 02:11:07;;;;;;;;;33.25;32.75;;;;;11.22;64.69;102602.97;6275483;22;11490;-71
2021/10/05 02:14:03;;;;;;;;;28.50;25.25;;;;;11.19;65.30;102609.06;6276466;22;11462;-71
2021/10/05 02:16:59;;;;;;;;;28.00;28.00;;;;;11.14;65.52;102609.94;6277562;22;11629;-71
2021/10/05 02:19:54;;;;;;;;;19.00;19.00;;;;;10.97;66.03;102609.50;6275353;22;11630;-71
2021/10/05 02:22:22;;;;;;;;;22.00;22.00;;;;;11.09;65.77;102612.72;6285204;22;11468;-71
2021/10/05 02:25:17;;;;;;;;;19.50;19.50;;;;;10.94;66.58;102615.59;6277538;22;11437;-71
2021/10/05 02:27:59;;;;;;;;;22.00;22.00;;;;;11.06;66.18;102616.91;6276505;22;11507;-71
2021/10/05 02:30:55;;;;;;;;;24.50;24.00;;;;;11.03;66.29;102614.72;6277225;22;11449;-71
2021/10/05 02:33:51;;;;;;;;;23.50;23.50;;;;;10.98;66.55;102619.47;6277283;22;11461;-71
2021/10/05 02:36:46;;;;;;;;;26.25;26.25;;;;;11.00;66.64;102617.22;6277185;22;11444;-71
2021/10/05 02:39:42;;;;;;;;;25.25;25.25;;;;;10.95;66.72;102620.84;6277278;22;11476;-71
2021/10/05 02:42:38;;;;;;;;;22.25;21.50;;;;;11.03;66.71;102620.25;6277156;22;11453;-71
2021/10/05 02:45:34;;;;;;;;;21.75;20.50;;;;;10.94;67.02;102618.38;6277268;22;11491;-71
2021/10/05 02:48:29;;;;;;;;;26.25;26.25;;;;;10.95;66.96;102615.31;6276978;22;11494;-71
2021/10/05 02:51:25;;;;;;;;;23.50;21.50;;;;;10.93;67.22;102619.50;6274957;22;12170;-71
2021/10/05 02:54:20;;;;;;;;;18.50;18.50;;;;;10.91;67.04;102622.56;6277088;22;11491;-72
2021/10/05 02:56:48;;;;;;;;;19.75;19.75;;;;;11.01;66.97;102625.25;6286476;22;11511;-71
2021/10/05 02:59:44;;;;;;;;;21.50;21.50;;;;;10.91;67.47;102627.25;6277131;22;11559;-71
2021/10/05 03:02:40;;;;;;;;;17.50;17.50;;;;;10.99;67.00;102624.72;6277055;22;12254;-72
2021/10/05 03:05:36;;;;;;;;;20.75;20.75;;;;;10.78;67.91;102629.53;6276960;22;11468;-71
2021/10/05 03:08:31;;;;;;;;;20.75;19.75;;;;;10.82;67.66;102622.34;6277072;22;11542;-71
2021/10/05 03:11:27;;;;;;;;;22.00;21.75;;;;;10.77;67.96;102627.06;6293786;22;11450;-71
2021/10/05 03:14:23;;;;;;;;;19.50;19.50;;;;;10.85;67.71;102624.53;6276804;22;11555;-71
2021/10/05 03:17:18;;;;;;;;;27.50;27.50;;;;;10.76;67.88;102628.19;6276782;22;11492;-71
2021/10/05 03:20:14;;;;;;;;;20.50;20.50;;;;;10.75;67.92;102630.13;6277101;22;11450;-71
2021/10/05 03:23:09;;;;;;;;;23.25;23.25;;;;;10.66;68.39;102640.13;6276704;22;11448;-71
2021/10/05 03:26:05;;;;;;;;;24.75;24.00;;;;;10.64;68.13;102633.22;6294556;22;11462;-72
2021/10/05 03:29:03;;;;;;;;;21.00;21.00;;;;;10.61;68.23;102631.03;6276802;22;11556;-71
2021/10/05 03:31:58;;;;;;;;;29.00;25.75;;;;;10.56;68.29;102635.47;6276333;22;11511;-71
2021/10/05 03:34:54;;;;;;;;;28.25;27.00;;;;;10.57;68.64;102633.50;6276878;22;11451;-72
2021/10/05 03:37:49;;;;;;;;;23.00;21.50;;;;;10.50;68.80;102633.81;6274467;22;11583;-71
2021/10/05 03:40:45;;;;;;;;;40.25;35.50;;;;;10.56;68.62;102637.41;6276470;22;11467;-71
2021/10/05 03:43:41;;;;;;;;;29.75;29.75;;;;;10.54;68.37;102643.22;6274574;22;11531;-72
2021/10/05 03:46:08;;;;;;;;;27.25;26.50;;;;;10.56;68.41;102635.47;6285739;22;11459;-71
2021/10/05 03:49:04;;;;;;;;;27.50;27.00;;;;;10.49;68.45;102648.75;6276375;22;11489;-71
2021/10/05 03:52:00;;;;;;;;;27.00;25.50;;;;;10.67;68.10;102649.25;6276568;22;11549;-72
2021/10/05 03:54:56;;;;;;;;;29.25;29.25;;;;;10.78;67.64;102651.69;6276638;22;11459;-71
2021/10/05 03:57:51;;;;;;;;;29.00;27.25;;;;;10.53;68.25;102644.34;6276493;22;11481;-72
2021/10/05 04:00:47;;;;;;;;;37.50;36.50;;;;;10.60;68.02;102648.75;6276640;22;11525;-72
2021/10/05 04:03:43;;;;;;;;;30.00;30.00;;;;;10.54;68.19;102647.94;6276326;22;11516;-71
2021/10/05 04:06:40;;;;;;;;;26.75;26.75;;;;;10.53;68.17;102654.56;6276376;22;11585;-71
2021/10/05 04:09:08;;;;;;;;;28.75;27.25;;;;;10.44;68.15;102650.75;6285268;22;11504;-71
2021/10/05 04:11:36;;;;;;;;;29.75;29.00;;;;;10.63;67.96;102657.28;6274940;22;11451;-71
2021/10/05 04:14:31;;;;;;;;;32.75;31.00;;;;;10.71;67.57;102648.38;6276322;22;11496;-71
2021/10/05 04:17:27;;;;;;;;;36.75;35.50;;;;;10.58;68.03;102655.38;6276438;22;12209;-70
2021/10/05 04:20:22;;;;;;;;;21.25;20.50;;;;;10.65;67.54;102655.06;6276227;22;11544;-71
2021/10/05 04:23:18;;;;;;;;;22.00;22.00;;;;;10.85;67.24;102651.38;6276094;22;11432;-71
2021/10/05 04:26:13;;;;;;;;;22.00;22.00;;;;;10.77;69.23;102651.97;6275892;22;11455;-72
2021/10/05 04:29:09;;;;;;;;;21.75;21.75;;;;;11.07;68.96;102657.34;6275986;22;11469;-73
2021/10/05 04:32:06;;;;;;;;;39.25;37.50;;;;;11.39;70.69;102659.59;6275547;22;11568;-71
2021/10/05 04:35:02;;;;;;;;;26.75;26.50;;;;;11.90;75.24;102661.16;6276023;22;11521;-71
2021/10/05 04:37:30;;;;;;;;;21.75;21.75;;;;;12.02;73.42;102650.47;6285087;22;11530;-71
2021/10/05 04:39:58;;;;;;;;;26.50;26.50;;;;;11.30;66.08;102663.28;6276557;22;11480;-71
2021/10/05 04:42:25;;;;;;;;;25.00;24.00;;;;;11.75;73.00;102672.34;6309237;22;12180;-70
2021/10/05 04:44:53;;;;;;;;;21.00;21.00;;;;;12.07;72.34;102669.84;6285306;22;11318;-70
2021/10/05 04:47:21;;;;;;;;;29.25;28.25;;;;;12.49;74.21;102671.84;6285253;22;11441;-70
2021/10/05 04:49:53;;;;;;;;;24.00;24.00;;;;;12.89;74.69;102678.03;6285352;22;11477;-70
2021/10/05 04:52:20;;;;;;;;;22.75;21.75;;;;;12.40;69.21;102678.38;6276090;22;11883;-70
2021/10/05 04:54:48;;;;;;;;;24.00;23.50;;;;;12.17;67.11;102674.44;6285072;22;10992;-70
2021/10/05 04:57:16;;;;;;;;;24.25;23.50;;;;;12.63;72.43;102676.69;6285260;22;11021;-70
2021/10/05 04:59:44;;;;;;;;;24.25;24.25;;;;;12.37;64.91;102682.56;6284035;22;10967;-70
2021/10/05 05:02:12;;;;;;;;;33.00;33.00;;;;;12.55;64.41;102683.72;6285226;22;11008;-70
2021/10/05 05:04:40;;;;;;;;;21.75;21.75;;;;;12.62;63.50;102694.47;6285252;22;11163;-70
2021/10/05 05:07:08;;;;;;;;;24.25;24.25;;;;;13.11;72.19;102696.88;6285293;22;10978;-70
2021/10/05 05:09:36;;;;;;;;;23.00;23.00;;;;;13.32;65.32;102700.22;6285174;22;10738;-70
2021/10/05 05:12:04;;;;;;;;;24.00;22.00;;;;;12.90;63.57;102710.25;6284998;22;10982;-70
2021/10/05 05:14:32;;;;;;;;;32.00;32.00;;;;;12.74;63.43;102695.72;6285073;22;11626;-70
2021/10/05 05:17:00;;;;;;;;;40.50;36.25;;;;;13.25;62.44;102708.94;6284867;22;12193;-70
2021/10/05 05:19:28;;;;;;;;;31.75;31.75;;;;;12.87;59.97;102704.44;6284981;22;11536;-70
2021/10/05 05:21:59;;;;;;;;;55.00;43.25;;;;;13.43;64.50;102701.75;6283514;22;11147;-71
2021/10/05 05:24:27;;;;;;;;;45.25;40.00;;;;;13.52;62.88;102708.25;6285385;22;12172;-70
2021/10/05 05:26:55;;;;;;;;;52.25;44.75;;;;;13.34;60.87;102703.53;6274582;22;11475;-70
2021/10/05 05:29:23;;;;;;;;;35.25;34.00;;;;;13.59;65.59;102711.50;6274679;22;11671;-70
2021/10/05 05:31:52;;;;;;;;;29.75;28.75;;;;;13.64;65.01;102716.94;6276064;22;10935;-70
2021/10/05 05:34:20;;;;;;;;;32.25;30.00;;;;;14.01;67.24;102709.66;6285094;22;10851;-70
2021/10/05 05:36:47;;;;;;;;;37.50;33.25;;;;;13.72;57.54;102714.59;6283605;22;11409;-71
2021/10/05 05:39:16;;;;;;;;;36.75;34.50;;;;;13.48;58.03;102721.09;6276072;22;11032;-70
2021/10/05 05:41:45;;;;;;;;;56.25;44.00;;;;;13.07;57.18;102715.28;6249065;22;11015;-71
2021/10/05 05:44:13;;;;;;;;;50.50;41.00;;;;;13.36;58.86;102731.88;6284746;22;11485;-70
2021/10/05 05:46:41;;;;;;;;;41.00;37.00;;;;;13.53;62.79;102715.47;6284899;22;11273;-70
2021/10/05 05:49:09;;;;;;;;;50.50;43.75;;;;;14.11;60.74;102726.19;6248781;22;11110;-70
2021/10/05 05:51:37;;;;;;;;;32.75;30.25;;;;;13.87;55.70;102722.69;6274632;22;11440;-71
2021/10/05 05:54:04;;;;;;;;;31.75;30.50;;;;;13.74;56.17;102729.88;6285069;22;10827;-71
2021/10/05 05:56:32;;;;;;;;;28.75;26.75;;;;;14.12;57.22;102733.41;6284637;22;10766;-71
2021/10/05 05:59:00;;;;;;;;;30.75;30.00;;;;;14.58;62.73;102740.09;6275432;22;11540;-71
2021/10/05 06:01:31;;;;;;;;;31.75;31.75;;;;;14.08;53.55;102746.25;6284552;22;10611;-71
2021/10/05 06:04:00;;;;;;;;;23.50;23.50;;;;;13.89;53.52;102746.31;6284440;22;10682;-72
2021/10/05 06:06:32;;;;;;;;;38.25;34.75;;;;;13.98;54.83;102749.22;6284724;22;10500;-72
2021/10/05 06:09:03;;;;;;;;;31.50;30.00;;;;;14.10;54.31;102743.16;6284981;22;10843;-72
2021/10/05 06:11:36;;;;;;;;;15.75;15.75;;;;;14.60;60.61;102737.84;6284653;22;10810;-71
2021/10/05 06:14:04;;;;;;;;;37.75;35.75;;;;;14.28;55.22;102749.81;6308169;22;10478;-70
2021/10/05 06:16:33;;;;;;;;;34.25;33.50;;;;;14.40;52.90;102758.50;6284331;22;10704;-71
2021/10/05 06:19:28;;;;;;;;;35.00;33.50;;;;;14.50;52.29;102761.13;6275098;22;10532;-71
2021/10/05 06:22:24;;;;;;;;;19.75;19.75;;;;;13.79;52.34;102762.31;6275288;22;10766;-71
2021/10/05 06:25:23;;;;;;;;;26.50;26.50;;;;;13.61;53.52;102755.66;6275464;22;10396;-73
2021/10/05 06:28:00;;;;;;;;;28.00;28.00;;;;;13.63;53.30;102751.44;6284496;22;10475;-71
2021/10/05 06:30:56;;;;;;;;;28.25;28.25;;;;;13.64;53.05;102755.06;6274936;22;11448;-71
2021/10/05 06:33:51;;;;;;;;;20.50;20.50;;;;;14.03;52.69;102763.06;6275417;22;10856;-72
2021/10/05 06:36:47;;;;;;;;;21.00;21.00;;;;;14.25;52.09;102753.22;6275288;22;10434;-72
2021/10/05 06:39:43;;;;;;;;;25.25;22.75;;;;;14.43;51.40;102757.91;6275013;22;10383;-72
2021/10/05 06:42:41;;;;;;;;;25.75;24.75;;;;;14.34;50.36;102760.56;6274919;22;10616;-72
2021/10/05 06:45:37;;;;;;;;;30.00;28.00;;;;;13.96;51.24;102756.25;6272985;22;10508;-72
2021/10/05 06:48:34;;;;;;;;;27.50;27.50;;;;;14.06;51.18;102758.84;6272984;22;10689;-72
2021/10/05 06:51:29;;;;;;;;;24.75;24.75;;;;;14.38;51.20;102769.13;6275089;22;10584;-71
2021/10/05 06:54:29;;;;;;;;;25.00;23.75;;;;;14.26;50.61;102765.97;6275690;22;10522;-71
2021/10/05 06:57:30;;;;;;;;;20.00;19.25;;;;;14.23;50.33;102766.59;6275182;22;10223;-72
2021/10/05 07:00:27;;;;;;;;;30.00;29.50;;;;;14.58;50.06;102756.81;6275573;22;10531;-71
2021/10/05 07:07:01;;;;;;;;;29.75;29.75;;;;;14.61;49.41;102757.00;6286160;22;10616;-71
2021/10/05 07:10:07;;;;;;;;;29.75;29.50;;;;;15.15;48.78;102754.50;6295235;22;10532;-73
2021/10/05 07:12:40;;;;;;;;;38.00;31.75;;;;;15.38;47.72;102756.22;6275696;22;10619;-73
2021/10/05 07:15:36;;;;;;;;;25.00;23.50;;;;;15.17;47.42;102750.28;6295060;22;10534;-71
2021/10/05 07:18:33;;;;;;;;;21.25;20.50;;;;;14.99;47.69;102752.06;6277005;22;10167;-71
2021/10/05 07:21:29;;;;;;;;;25.50;24.75;;;;;15.27;47.13;102743.66;6276744;22;9963;-71
2021/10/05 07:24:24;;;;;;;;;27.50;27.50;;;;;15.24;45.76;102741.47;6276870;22;10181;-71
2021/10/05 07:27:21;;;;;;;;;28.50;26.25;;;;;15.45;45.20;102745.47;6276431;22;10258;-73
2021/10/05 07:30:22;;;;;;;;;25.00;24.50;;;;;15.65;45.16;102741.41;6276894;22;10244;-72
2021/10/05 07:33:18;;;;;;;;;40.00;35.75;;;;;15.79;44.78;102732.97;6274525;22;10583;-71
2021/10/05 07:36:14;;;;;;;;;54.50;43.25;;;;;15.86;44.80;102738.91;6276831;22;10444;-72
2021/10/05 07:39:09;;;;;;;;;39.75;36.25;;;;;16.04;44.38;102737.09;6276637;22;10897;-72
2021/10/05 07:42:05;;;;;;;;;24.00;24.00;;;;;16.40;43.44;102737.78;6276652;22;10307;-73
2021/10/05 07:45:01;;;;;;;;;23.00;23.00;;;;;16.58;42.30;102741.50;6276745;22;9867;-72
2021/10/05 07:47:57;;;;;;;;;22.25;22.25;;;;;16.68;42.59;102748.75;6276566;22;9964;-73
2021/10/05 07:50:52;;;;;;;;;20.00;19.25;;;;;16.84;42.27;102741.59;6276002;22;9687;-73
2021/10/05 07:53:48;;;;;;;;;18.75;18.75;;;;;16.97;41.16;102737.03;6277037;22;9410;-73
2021/10/05 07:56:43;;;;;;;;;26.25;24.50;;;;;17.04;40.42;102742.16;6276033;22;9729;-72
2021/10/05 07:59:39;;;;;;;;;22.33;21.00;;;;;17.06;39.46;102731.47;6276089;22;9419;-73
2021/10/05 08:02:35;;;;;;;;;24.25;22.75;;;;;17.07;39.18;102728.34;6293104;22;9484;-74
2021/10/05 08:05:30;;;;;;;;;25.33;19.33;;;;;17.01;38.95;102740.00;6274136;22;9584;-73
2021/10/05 08:08:26;;;;;;;;;15.67;15.00;;;;;17.22;39.19;102729.84;6276079;22;9349;-74
2021/10/05 08:11:23;;;;;;;;;15.00;15.00;;;;;17.29;39.33;102723.78;6275867;22;9247;-72
2021/10/05 08:14:19;;;;;;;;;16.33;16.33;;;;;17.75;38.85;102732.34;6293545;22;9924;-73
2021/10/05 08:17:14;;;;;;;;;16.33;16.33;;;;;17.65;37.44;102746.66;6275579;22;9265;-72
2021/10/05 08:20:11;;;;;;;;;21.33;20.67;;;;;17.52;37.37;102739.25;6276075;22;9147;-72
2021/10/05 08:22:41;;;;;;;;;14.67;14.67;;;;;17.69;37.64;102732.81;6285172;22;9039;-72
2021/10/05 08:25:36;;;;;;;;;11.00;11.00;;;;;17.60;37.88;102741.22;6273928;22;8889;-73
2021/10/05 08:28:32;;;;;;;;;20.33;17.33;;;;;17.88;37.60;102746.53;6276110;22;8812;-72
2021/10/05 08:31:28;;;;;;;;;19.00;19.00;;;;;17.73;37.42;102731.88;6275552;22;9107;-73
2021/10/05 08:34:23;;;;;;;;;20.67;20.33;;;;;18.25;37.55;102742.16;6276118;22;9078;-73
2021/10/05 08:37:19;;;;;;;;;14.50;14.25;;;;;18.22;36.77;102740.84;6276329;22;9768;-73
2021/10/05 08:40:15;;;;;;;;;15.67;14.00;;;;;18.51;36.25;102739.25;6275700;22;9582;-77
2021/10/05 08:43:11;;;;;;;;;10.25;10.25;;;;;18.23;35.88;102745.28;6276080;22;8963;-73
2021/10/05 08:46:06;;;;;;;;;11.50;11.50;;;;;18.63;35.54;102742.16;6275784;22;8908;-74
2021/10/05 08:49:03;;;;;;;;;11.00;11.00;;;;;18.49;35.67;102727.59;6275959;22;8778;-74
2021/10/05 08:51:58;;;;;;;;;12.00;12.00;;;;;18.85;34.98;102718.69;6275901;22;8778;-73
2021/10/05 08:54:54;;;;;;;;;11.75;11.75;;;;;18.80;35.82;102739.34;6275917;22;8778;-73
2021/10/05 08:57:50;;;;;;;;;16.25;15.75;;;;;18.92;35.44;102718.16;6274267;22;8830;-75
2021/10/05 09:00:45;;;;;;;;;34.33;27.00;;;;;18.40;35.39;102721.97;6275735;22;8790;-72
2021/10/05 09:03:52;;;;;;;;;23.25;18.25;;;;;18.16;35.49;102732.94;6273436;22;9039;-73
2021/10/05 09:06:23;;;;;;;;;9.75;9.75;;;;;18.63;35.19;102725.34;6275776;22;8840;-75
2021/10/05 09:08:56;;;;;;;;;9.25;9.25;;;;;18.52;35.10;102738.94;6283574;22;8778;-73
2021/10/05 09:11:53;;;;;;;;;8.75;8.75;;;;;19.07;35.69;102731.56;6272518;22;8832;-73
2021/10/05 09:14:49;;;;;;;;;8.00;8.00;;;;;19.35;34.03;102732.72;6275424;22;8844;-73
2021/10/05 09:17:57;;;;;;;;;6.50;6.50;;;;;19.78;33.57;102733.53;6275691;22;8808;-75
2021/10/05 09:20:53;;;;;;;;;8.50;8.50;;;;;20.04;33.19;102728.47;6275285;22;8778;-71
2021/10/05 09:23:57;;;;;;;;;11.25;11.00;;;;;20.17;33.44;102730.16;6275001;22;8816;-74
2021/10/05 09:26:56;;;;;;;;;12.50;12.00;;;;;20.40;33.78;102724.94;6275127;22;8821;-74
2021/10/05 09:29:26;;;;;;;;;11.00;11.00;;;;;20.34;32.61;102736.75;6275524;22;8790;-72
2021/10/05 09:32:00;;;;;;;;;9.00;8.75;;;;;20.35;32.80;102739.22;6284660;22;8782;-73
2021/10/05 09:34:50;;;;;;;;;6.25;5.75;;;;;20.78;32.30;102740.69;6284300;22;8778;-72
2021/10/05 09:37:46;;;;;;;;;8.00;8.00;;;;;20.59;31.93;102732.81;6275638;22;8790;-73
2021/10/05 09:40:43;;;;;;;;;4.50;4.50;;;;;20.31;32.66;102726.19;6275546;22;8801;-73
2021/10/05 09:43:39;;;;;;;;;15.00;15.00;;;;;20.29;32.93;102723.72;6275712;22;9036;-74
2021/10/05 09:46:34;;;;;;;;;15.25;15.25;;;;;20.09;32.78;102708.63;6275592;22;9584;-74
2021/10/05 09:49:40;;;;;;;;;17.75;17.75;;;;;20.23;33.06;102714.69;6275090;22;8844;-74
2021/10/05 09:52:50;;;;;;;;;27.50;26.00;;;;;20.48;32.57;102709.16;6275321;22;8786;-74
2021/10/05 09:55:46;;;;;;;;;26.00;24.00;;;;;19.76;32.93;102727.44;6275665;22;8790;-73
2021/10/05 09:58:42;;;;;;;;;19.00;19.00;;;;;19.44;33.59;102725.03;6273070;22;8778;-72
2021/10/05 10:01:38;;;;;;;;;21.00;21.00;;;;;18.84;34.24;102722.66;6275230;22;8883;-73
2021/10/05 10:04:34;;;;;;;;;20.25;20.00;;;;;18.65;34.93;102736.25;6275413;22;8770;-74
2021/10/05 10:07:30;;;;;;;;;23.00;23.00;;;;;19.17;34.59;102725.59;6274708;22;8860;-74
2021/10/05 10:09:58;;;;;;;;;17.00;15.75;;;;;19.56;34.35;102721.50;6275789;22;8794;-74
2021/10/05 10:12:27;;;;;;;;;14.50;14.50;;;;;20.01;33.57;102715.13;6275644;22;8798;-74
2021/10/05 10:14:57;;;;;;;;;19.25;19.25;;;;;19.88;32.85;102725.50;6284504;22;9026;-74
2021/10/05 10:17:25;;;;;;;;;27.25;26.00;;;;;19.98;33.33;102710.19;6283305;22;8767;-74
2021/10/05 10:19:53;;;;;;;;;31.00;30.25;;;;;20.13;33.00;102726.41;6308551;22;8801;-73
2021/10/05 10:22:21;;;;;;;;;22.50;22.00;;;;;19.74;33.04;102719.38;6284546;22;8778;-74
2021/10/05 10:24:58;;;;;;;;;36.50;30.50;;;;;19.24;33.47;102739.88;6284711;22;9456;-74
2021/10/05 10:27:26;;;;;;;;;19.50;19.50;;;;;18.72;33.94;102731.78;6248671;22;8786;-74
2021/10/05 10:30:10;;;;;;;;;15.75;15.75;;;;;18.55;34.07;102715.00;6283418;22;8786;-74
2021/10/05 10:32:46;;;;;;;;;24.25;20.25;;;;;18.93;33.77;102712.19;6284428;22;8782;-74
2021/10/05 10:35:14;;;;;;;;;19.00;16.50;;;;;19.78;33.50;102706.25;6285559;22;8801;-74
2021/10/05 10:37:44;;;;;;;;;11.75;11.75;;;;;19.74;31.82;102704.50;6284280;22;8778;-74
2021/10/05 10:40:16;;;;;;;;;10.00;9.50;;;;;19.94;31.27;102714.88;6286712;22;8793;-74
2021/10/05 10:42:44;;;;;;;;;10.00;10.00;;;;;20.18;30.95;102698.09;6286428;22;8766;-74
2021/10/05 10:45:20;;;;;;;;;8.25;8.25;;;;;20.35;31.04;102707.47;6286621;22;8801;-74
2021/10/05 10:47:54;;;;;;;;;14.00;14.00;;;;;20.71;30.31;102701.09;6286601;22;8786;-73
2021/10/05 10:50:23;;;;;;;;;16.25;15.50;;;;;21.02;29.79;102700.47;6277280;22;8790;-76
2021/10/05 10:52:50;;;;;;;;;41.25;27.50;;;;;21.19;29.80;102700.19;6286434;22;8798;-75
2021/10/05 10:55:33;;;;;;;;;10.75;10.75;;;;;21.47;29.38;102694.66;6301287;22;8790;-75
2021/10/05 10:58:04;;;;;;;;;11.25;11.25;;;;;21.33;29.92;102700.66;6286753;22;8798;-77
2021/10/05 11:00:33;;;;;;;;;12.50;12.50;;;;;20.74;30.24;102704.00;6284832;22;8782;-75
2021/10/05 11:03:03;;;;;;;;;12.75;10.75;;;;;19.67;31.38;102710.69;6277488;22;8821;-76
2021/10/05 11:05:35;;;;;;;;;12.50;11.25;;;;;19.44;32.21;102710.19;6285775;22;8886;-78
2021/10/05 11:08:31;;;;;;;;;11.75;11.75;;;;;19.12;32.53;102711.75;6276790;22;8932;-76
2021/10/05 11:11:49;;;;;;;;;13.00;13.00;;;;;19.74;32.34;102707.31;6274565;22;9523;-75
2021/10/05 11:14:47;;;;;;;;;8.25;8.25;;;;;19.97;32.36;102702.94;6276850;22;8789;-76
2021/10/05 11:17:45;;;;;;;;;7.50;7.50;;;;;19.70;31.84;102696.75;6276948;22;8797;-78
2021/10/05 11:20:47;;;;;;;;;10.75;10.75;;;;;19.48;32.51;102699.94;6276877;22;8936;-77
2021/10/05 11:23:44;;;;;;;;;9.75;9.75;;;;;19.64;31.81;102702.97;6275194;22;8824;-77
2021/10/05 11:26:46;;;;;;;;;10.50;10.50;;;;;19.54;32.87;102700.53;6276487;22;8817;-77
2021/10/05 11:29:26;;;;;;;;;8.00;8.00;;;;;19.57;33.08;102689.47;6286185;22;8790;-77
2021/10/05 11:32:22;;;;;;;;;11.00;11.00;;;;;19.65;32.49;102699.81;6276770;22;8802;-76
2021/10/05 11:35:18;;;;;;;;;9.50;9.50;;;;;19.57;32.22;102697.06;6276474;22;8877;-76
2021/10/05 11:38:13;;;;;;;;;10.50;10.50;;;;;19.29;33.05;102702.38;6274527;22;8800;-75
2021/10/05 11:41:10;;;;;;;;;13.00;12.75;;;;;19.25;33.00;102710.69;6274623;22;8786;-75
2021/10/05 11:44:15;;;;;;;;;12.50;12.50;;;;;19.05;33.34;102694.66;6276993;22;9589;-75
2021/10/05 11:47:14;;;;;;;;;20.00;15.25;;;;;18.79;33.43;102690.03;6276219;22;8802;-75
2021/10/05 11:50:10;;;;;;;;;14.25;13.50;;;;;19.24;33.29;102700.59;6276837;22;8859;-75
2021/10/05 11:53:06;;;;;;;;;9.50;9.50;;;;;19.22;33.46;102710.53;6276221;22;8766;-75
2021/10/05 11:56:10;;;;;;;;;9.75;9.75;;;;;19.88;32.72;102708.66;6274300;22;8797;-74
2021/10/05 11:58:55;;;;;;;;;10.75;10.00;;;;;20.69;31.33;102711.84;6285484;22;8928;-75
2021/10/05 12:01:56;;;;;;;;;11.25;11.25;;;;;20.14;31.92;102704.75;6276493;22;8809;-75
2021/10/05 12:04:55;;;;;;;;;13.00;13.00;;;;;19.78;32.55;102716.69;6276230;22;8783;-77
2021/10/05 12:07:51;;;;;;;;;24.00;22.67;;;;;18.92;33.90;102732.16;6276233;22;8826;-75
2021/10/05 12:10:19;;;;;;;;;25.25;25.25;;;;;18.55;34.86;102724.22;6285690;22;8940;-77
2021/10/05 12:13:01;;;;;;;;;29.00;26.75;;;;;18.45;35.08;102726.59;6276689;22;8937;-76
2021/10/05 12:15:57;;;;;;;;;18.00;18.00;;;;;18.08;35.35;102722.59;6276664;22;8782;-75
2021/10/05 12:18:25;;;;;;;;;23.33;23.33;;;;;18.22;35.82;102726.84;6310037;22;8774;-75
2021/10/05 12:21:21;;;;;;;;;18.00;18.00;;;;;18.56;35.17;102727.88;6276418;22;9154;-75
2021/10/05 12:24:17;;;;;;;;;17.67;17.33;;;;;18.72;35.08;102730.97;6276538;22;8954;-76
2021/10/05 12:27:19;;;;;;;;;6.00;4.00;;;;;18.31;35.74;102722.03;6274010;22;8890;-76
2021/10/05 12:30:13;;;;;;;;;18.00;15.67;;;;;18.16;35.65;102725.38;6275540;22;9045;-76
2021/10/05 12:33:12;;;;;;;;;30.00;27.00;;;;;18.31;35.28;102735.22;6275288;22;9028;-76
2021/10/05 12:36:08;;;;;;;;;27.00;27.00;;;;;18.20;35.49;102725.53;6275906;22;9720;-74
2021/10/05 12:38:36;;;;;;;;;21.33;21.00;;;;;18.26;35.96;102732.59;6276404;22;9111;-75
2021/10/05 12:41:31;;;;;;;;;29.00;29.00;;;;;18.14;36.00;102730.47;6276044;22;8962;-76
2021/10/05 12:44:32;;;;;;;;;26.33;26.33;;;;;18.04;36.16;102734.47;6276275;22;9175;-75
2021/10/05 12:47:27;;;;;;;;;27.00;27.00;;;;;18.12;36.73;102740.38;6274296;22;9177;-75
2021/10/05 12:50:25;;;;;;;;;29.00;29.00;;;;;18.10;36.82;102737.09;6275814;22;9345;-76
2021/10/05 12:53:20;;;;;;;;;27.33;24.00;;;;;18.20;36.72;102731.13;6275964;22;9246;-74
2021/10/05 12:56:23;;;;;;;;;25.00;25.00;;;;;17.89;36.90;102726.59;6275551;22;9267;-76